sensor_id;sensor_type;location;lat;lon;timestamp;noise_LAeq;noise_LA_min;noise_LA_max;noise_LA01;noise_LA95
67294;Laerm;58160;51.434;5.978;2023-04-06T00:00:07;33.60;29.75;44.16;;
67294;Laerm;58160;51.434;5.978;2023-04-06T00:00:19;33.41;30.11;43.88;;
67294;Laerm;58160;51.434;5.978;2023-04-06T00:00:29;30.95;29.89;34.34;;
67294;Laerm;58160;51.434;5.978;2023-04-06T00:00:40;31.06;29.79;37.33;;
67294;Laerm;58160;51.434;5.978;2023-04-06T00:00:50;30.88;29.73;31.98;;
67294;Laerm;58160;51.434;5.978;2023-04-06T00:01:01;31.26;29.98;34.26;;
67294;Laerm;58160;51.434;5.978;2023-04-06T00:01:11;32.06;29.86;36.49;;
67294;Laerm;58160;51.434;5.978;2023-04-06T00:01:21;33.42;30.66;36.48;;
67294;Laerm;58160;51.434;5.978;2023-04-06T00:01:32;35.42;31.29;38.25;;
67294;Laerm;58160;51.434;5.978;2023-04-06T00:01:42;35.25;32.46;38.85;;
67294;Laerm;58160;51.434;5.978;2023-04-06T00:01:52;33.95;31.51;40.40;;
67294;Laerm;58160;51.434;5.978;2023-04-06T00:02:03;33.29;30.92;37.11;;
67294;Laerm;58160;51.434;5.978;2023-04-06T00:02:13;32.35;30.75;35.21;;
67294;Laerm;58160;51.434;5.978;2023-04-06T00:02:23;31.78;30.32;33.56;;
67294;Laerm;58160;51.434;5.978;2023-04-06T00:02:34;31.23;29.99;32.77;;
67294;Laerm;58160;51.434;5.978;2023-04-06T00:02:44;31.09;30.03;33.28;;
67294;Laerm;58160;51.434;5.978;2023-04-06T00:02:55;30.97;30.11;31.84;;
67294;Laerm;58160;51.434;5.978;2023-04-06T00:03:05;30.90;30.01;33.32;;
67294;Laerm;58160;51.434;5.978;2023-04-06T00:03:16;30.90;30.06;32.13;;
67294;Laerm;58160;51.434;5.978;2023-04-06T00:03:26;30.90;29.61;31.84;;
67294;Laerm;58160;51.434;5.978;2023-04-06T00:03:37;30.90;29.58;31.87;;
67294;Laerm;58160;51.434;5.978;2023-04-06T00:03:47;30.84;30.00;31.93;;
67294;Laerm;58160;51.434;5.978;2023-04-06T00:03:57;30.90;29.90;37.56;;
67294;Laerm;58160;51.434;5.978;2023-04-06T00:04:08;30.83;29.72;32.00;;
67294;Laerm;58160;51.434;5.978;2023-04-06T00:04:18;30.79;29.64;31.98;;
67294;Laerm;58160;51.434;5.978;2023-04-06T00:04:28;30.85;29.74;32.10;;
67294;Laerm;58160;51.434;5.978;2023-04-06T00:04:39;30.85;29.45;31.88;;
67294;Laerm;58160;51.434;5.978;2023-04-06T00:04:49;30.83;29.97;31.77;;
67294;Laerm;58160;51.434;5.978;2023-04-06T00:04:59;30.85;29.82;31.92;;
67294;Laerm;58160;51.434;5.978;2023-04-06T00:05:10;30.77;29.42;31.92;;
67294;Laerm;58160;51.434;5.978;2023-04-06T00:05:21;31.03;29.54;36.12;;
67294;Laerm;58160;51.434;5.978;2023-04-06T00:05:31;30.77;29.61;31.67;;
67294;Laerm;58160;51.434;5.978;2023-04-06T00:05:42;30.88;29.83;33.02;;
67294;Laerm;58160;51.434;5.978;2023-04-06T00:05:52;31.11;29.98;32.87;;
67294;Laerm;58160;51.434;5.978;2023-04-06T00:06:03;32.07;30.07;34.68;;
67294;Laerm;58160;51.434;5.978;2023-04-06T00:06:14;33.49;31.20;36.80;;
67294;Laerm;58160;51.434;5.978;2023-04-06T00:06:24;33.56;31.23;36.74;;
67294;Laerm;58160;51.434;5.978;2023-04-06T00:06:35;32.42;30.45;35.01;;
67294;Laerm;58160;51.434;5.978;2023-04-06T00:06:45;32.27;30.51;36.62;;
67294;Laerm;58160;51.434;5.978;2023-04-06T00:06:55;31.27;30.16;33.36;;
67294;Laerm;58160;51.434;5.978;2023-04-06T00:07:06;31.08;29.97;32.70;;
67294;Laerm;58160;51.434;5.978;2023-04-06T00:07:16;30.96;30.01;31.94;;
67294;Laerm;58160;51.434;5.978;2023-04-06T00:07:27;30.84;29.67;32.13;;
67294;Laerm;58160;51.434;5.978;2023-04-06T00:07:38;30.91;29.91;31.98;;
67294;Laerm;58160;51.434;5.978;2023-04-06T00:07:48;30.95;29.98;31.78;;
67294;Laerm;58160;51.434;5.978;2023-04-06T00:07:59;30.94;29.95;32.61;;
67294;Laerm;58160;51.434;5.978;2023-04-06T00:08:09;30.89;29.85;32.45;;
67294;Laerm;58160;51.434;5.978;2023-04-06T00:08:20;30.83;29.60;32.50;;
67294;Laerm;58160;51.434;5.978;2023-04-06T00:08:31;30.80;29.92;31.85;;
67294;Laerm;58160;51.434;5.978;2023-04-06T00:08:41;30.79;29.87;31.80;;
67294;Laerm;58160;51.434;5.978;2023-04-06T00:08:52;30.80;29.78;31.75;;
67294;Laerm;58160;51.434;5.978;2023-04-06T00:09:02;30.88;29.88;31.93;;
67294;Laerm;58160;51.434;5.978;2023-04-06T00:09:12;30.83;29.64;32.00;;
67294;Laerm;58160;51.434;5.978;2023-04-06T00:09:23;30.83;29.93;31.80;;
67294;Laerm;58160;51.434;5.978;2023-04-06T00:09:33;30.81;29.87;31.63;;
67294;Laerm;58160;51.434;5.978;2023-04-06T00:09:43;30.87;29.98;32.45;;
67294;Laerm;58160;51.434;5.978;2023-04-06T00:09:54;30.79;29.83;31.78;;
67294;Laerm;58160;51.434;5.978;2023-04-06T00:10:05;30.78;29.65;31.69;;
67294;Laerm;58160;51.434;5.978;2023-04-06T00:10:16;30.81;29.82;31.77;;
67294;Laerm;58160;51.434;5.978;2023-04-06T00:10:27;30.80;29.92;31.71;;
67294;Laerm;58160;51.434;5.978;2023-04-06T00:10:37;30.77;29.78;31.68;;
67294;Laerm;58160;51.434;5.978;2023-04-06T00:10:48;30.79;29.90;31.75;;
67294;Laerm;58160;51.434;5.978;2023-04-06T00:10:58;30.84;29.96;31.94;;
67294;Laerm;58160;51.434;5.978;2023-04-06T00:11:08;30.80;29.92;31.62;;
67294;Laerm;58160;51.434;5.978;2023-04-06T00:11:18;30.99;29.82;35.80;;
67294;Laerm;58160;51.434;5.978;2023-04-06T00:11:30;30.93;30.14;32.17;;
67294;Laerm;58160;51.434;5.978;2023-04-06T00:11:40;30.90;29.56;31.75;;
67294;Laerm;58160;51.434;5.978;2023-04-06T00:11:50;30.90;29.80;31.93;;
67294;Laerm;58160;51.434;5.978;2023-04-06T00:12:00;30.94;29.94;31.85;;
67294;Laerm;58160;51.434;5.978;2023-04-06T00:12:11;30.92;29.97;32.27;;
67294;Laerm;58160;51.434;5.978;2023-04-06T00:12:21;30.96;29.94;32.00;;
67294;Laerm;58160;51.434;5.978;2023-04-06T00:12:31;30.94;29.77;31.82;;
67294;Laerm;58160;51.434;5.978;2023-04-06T00:12:42;30.92;29.85;31.98;;
67294;Laerm;58160;51.434;5.978;2023-04-06T00:12:52;30.97;29.62;31.81;;
67294;Laerm;58160;51.434;5.978;2023-04-06T00:13:04;30.96;29.79;31.87;;
67294;Laerm;58160;51.434;5.978;2023-04-06T00:13:15;30.98;29.71;32.00;;
67294;Laerm;58160;51.434;5.978;2023-04-06T00:13:25;31.04;30.07;31.94;;
67294;Laerm;58160;51.434;5.978;2023-04-06T00:13:36;31.01;29.85;31.97;;
67294;Laerm;58160;51.434;5.978;2023-04-06T00:13:46;31.06;30.13;31.96;;
67294;Laerm;58160;51.434;5.978;2023-04-06T00:13:56;31.09;30.23;32.22;;
67294;Laerm;58160;51.434;5.978;2023-04-06T00:14:07;31.66;29.98;37.69;;
67294;Laerm;58160;51.434;5.978;2023-04-06T00:14:17;31.97;30.06;39.05;;
67294;Laerm;58160;51.434;5.978;2023-04-06T00:14:27;31.69;30.11;38.82;;
67294;Laerm;58160;51.434;5.978;2023-04-06T00:14:38;31.05;29.97;34.64;;
67294;Laerm;58160;51.434;5.978;2023-04-06T00:14:48;32.05;30.41;39.68;;
67294;Laerm;58160;51.434;5.978;2023-04-06T00:14:58;32.24;30.20;40.81;;
67294;Laerm;58160;51.434;5.978;2023-04-06T00:15:11;31.08;29.86;32.06;;
67294;Laerm;58160;51.434;5.978;2023-04-06T00:15:21;32.10;30.22;39.62;;
67294;Laerm;58160;51.434;5.978;2023-04-06T00:15:32;31.10;30.03;32.33;;
67294;Laerm;58160;51.434;5.978;2023-04-06T00:15:42;32.20;30.06;40.46;;
67294;Laerm;58160;51.434;5.978;2023-04-06T00:15:52;31.00;29.96;35.15;;
67294;Laerm;58160;51.434;5.978;2023-04-06T00:16:03;31.07;30.03;32.07;;
67294;Laerm;58160;51.434;5.978;2023-04-06T00:16:15;31.04;29.96;32.22;;
67294;Laerm;58160;51.434;5.978;2023-04-06T00:16:25;31.07;30.16;32.17;;
67294;Laerm;58160;51.434;5.978;2023-04-06T00:16:36;31.07;29.94;34.85;;
67294;Laerm;58160;51.434;5.978;2023-04-06T00:16:46;31.05;30.02;31.89;;
67294;Laerm;58160;51.434;5.978;2023-04-06T00:16:56;31.03;29.97;31.91;;
67294;Laerm;58160;51.434;5.978;2023-04-06T00:17:07;31.14;30.14;36.81;;
67294;Laerm;58160;51.434;5.978;2023-04-06T00:17:17;31.08;30.18;32.28;;
67294;Laerm;58160;51.434;5.978;2023-04-06T00:17:27;31.08;30.09;32.16;;
67294;Laerm;58160;51.434;5.978;2023-04-06T00:17:38;31.05;29.62;32.34;;
67294;Laerm;58160;51.434;5.978;2023-04-06T00:17:48;31.14;30.00;32.17;;
67294;Laerm;58160;51.434;5.978;2023-04-06T00:17:58;31.22;30.04;33.74;;
67294;Laerm;58160;51.434;5.978;2023-04-06T00:18:09;31.19;30.36;32.88;;
67294;Laerm;58160;51.434;5.978;2023-04-06T00:18:19;31.13;30.06;32.57;;
67294;Laerm;58160;51.434;5.978;2023-04-06T00:18:30;31.18;30.22;32.44;;
67294;Laerm;58160;51.434;5.978;2023-04-06T00:18:40;31.16;30.17;32.22;;
67294;Laerm;58160;51.434;5.978;2023-04-06T00:18:51;31.09;29.83;33.33;;
67294;Laerm;58160;51.434;5.978;2023-04-06T00:19:01;31.14;30.16;32.04;;
67294;Laerm;58160;51.434;5.978;2023-04-06T00:19:11;31.17;30.01;32.12;;
67294;Laerm;58160;51.434;5.978;2023-04-06T00:19:22;31.17;30.01;32.24;;
67294;Laerm;58160;51.434;5.978;2023-04-06T00:19:32;31.16;30.03;32.41;;
67294;Laerm;58160;51.434;5.978;2023-04-06T00:19:42;31.23;29.92;32.37;;
67294;Laerm;58160;51.434;5.978;2023-04-06T00:19:53;31.13;30.22;32.26;;
67294;Laerm;58160;51.434;5.978;2023-04-06T00:20:03;31.19;30.07;32.12;;
67294;Laerm;58160;51.434;5.978;2023-04-06T00:20:15;31.16;30.22;32.28;;
67294;Laerm;58160;51.434;5.978;2023-04-06T00:20:25;31.30;30.29;32.87;;
67294;Laerm;58160;51.434;5.978;2023-04-06T00:20:36;31.29;30.09;32.63;;
67294;Laerm;58160;51.434;5.978;2023-04-06T00:20:46;31.20;30.05;34.84;;
67294;Laerm;58160;51.434;5.978;2023-04-06T00:20:56;31.23;30.07;32.43;;
67294;Laerm;58160;51.434;5.978;2023-04-06T00:21:07;31.26;29.94;36.56;;
67294;Laerm;58160;51.434;5.978;2023-04-06T00:21:17;31.15;29.80;32.21;;
67294;Laerm;58160;51.434;5.978;2023-04-06T00:21:27;31.13;29.94;32.05;;
67294;Laerm;58160;51.434;5.978;2023-04-06T00:21:37;31.12;30.14;32.14;;
67294;Laerm;58160;51.434;5.978;2023-04-06T00:21:48;31.01;29.81;31.96;;
67294;Laerm;58160;51.434;5.978;2023-04-06T00:21:58;31.05;30.05;31.99;;
67294;Laerm;58160;51.434;5.978;2023-04-06T00:22:09;31.07;30.20;32.13;;
67294;Laerm;58160;51.434;5.978;2023-04-06T00:22:20;31.05;29.79;32.92;;
67294;Laerm;58160;51.434;5.978;2023-04-06T00:22:30;31.00;29.87;32.01;;
67294;Laerm;58160;51.434;5.978;2023-04-06T00:22:40;31.03;29.82;32.24;;
67294;Laerm;58160;51.434;5.978;2023-04-06T00:22:51;30.99;29.94;34.08;;
67294;Laerm;58160;51.434;5.978;2023-04-06T00:23:01;30.95;29.81;32.10;;
67294;Laerm;58160;51.434;5.978;2023-04-06T00:23:12;31.03;29.89;32.72;;
67294;Laerm;58160;51.434;5.978;2023-04-06T00:23:22;30.99;29.97;32.10;;
67294;Laerm;58160;51.434;5.978;2023-04-06T00:23:32;30.89;29.97;32.22;;
67294;Laerm;58160;51.434;5.978;2023-04-06T00:23:43;30.96;29.79;32.35;;
67294;Laerm;58160;51.434;5.978;2023-04-06T00:23:53;31.43;30.13;33.50;;
67294;Laerm;58160;51.434;5.978;2023-04-06T00:24:03;31.67;30.38;33.48;;
67294;Laerm;58160;51.434;5.978;2023-04-06T00:24:14;32.46;30.81;35.06;;
67294;Laerm;58160;51.434;5.978;2023-04-06T00:24:24;32.81;31.00;35.48;;
67294;Laerm;58160;51.434;5.978;2023-04-06T00:24:35;32.69;30.82;34.90;;
67294;Laerm;58160;51.434;5.978;2023-04-06T00:24:45;32.24;30.60;34.40;;
67294;Laerm;58160;51.434;5.978;2023-04-06T00:24:55;31.99;30.28;33.74;;
67294;Laerm;58160;51.434;5.978;2023-04-06T00:25:06;31.52;30.04;33.24;;
67294;Laerm;58160;51.434;5.978;2023-04-06T00:25:16;31.23;29.99;32.55;;
67294;Laerm;58160;51.434;5.978;2023-04-06T00:25:26;31.29;30.25;32.45;;
67294;Laerm;58160;51.434;5.978;2023-04-06T00:25:37;31.13;30.07;32.50;;
67294;Laerm;58160;51.434;5.978;2023-04-06T00:25:47;30.96;29.84;31.97;;
67294;Laerm;58160;51.434;5.978;2023-04-06T00:25:57;30.93;29.91;31.84;;
67294;Laerm;58160;51.434;5.978;2023-04-06T00:26:08;31.02;30.05;32.30;;
67294;Laerm;58160;51.434;5.978;2023-04-06T00:26:18;31.04;29.90;32.72;;
67294;Laerm;58160;51.434;5.978;2023-04-06T00:26:28;31.31;30.03;42.24;;
67294;Laerm;58160;51.434;5.978;2023-04-06T00:26:39;30.93;29.94;32.06;;
67294;Laerm;58160;51.434;5.978;2023-04-06T00:26:49;30.99;29.62;39.21;;
67294;Laerm;58160;51.434;5.978;2023-04-06T00:26:59;30.87;29.59;31.72;;
67294;Laerm;58160;51.434;5.978;2023-04-06T00:27:10;30.92;29.80;32.08;;
67294;Laerm;58160;51.434;5.978;2023-04-06T00:27:20;30.99;29.94;32.60;;
67294;Laerm;58160;51.434;5.978;2023-04-06T00:27:30;31.04;29.92;32.57;;
67294;Laerm;58160;51.434;5.978;2023-04-06T00:27:41;30.98;29.93;32.15;;
67294;Laerm;58160;51.434;5.978;2023-04-06T00:27:51;31.11;30.01;34.99;;
67294;Laerm;58160;51.434;5.978;2023-04-06T00:28:01;31.33;30.20;32.48;;
67294;Laerm;58160;51.434;5.978;2023-04-06T00:28:13;31.63;30.34;34.82;;
67294;Laerm;58160;51.434;5.978;2023-04-06T00:28:23;33.31;31.23;37.14;;
67294;Laerm;58160;51.434;5.978;2023-04-06T00:28:37;31.39;29.87;33.42;;
67294;Laerm;58160;51.434;5.978;2023-04-06T00:28:47;31.11;29.94;32.15;;
67294;Laerm;58160;51.434;5.978;2023-04-06T00:28:59;31.07;29.35;32.25;;
67294;Laerm;58160;51.434;5.978;2023-04-06T00:29:10;31.20;29.98;32.22;;
67294;Laerm;58160;51.434;5.978;2023-04-06T00:29:20;31.41;30.13;33.38;;
67294;Laerm;58160;51.434;5.978;2023-04-06T00:29:31;33.57;30.74;36.15;;
67294;Laerm;58160;51.434;5.978;2023-04-06T00:29:41;31.58;29.84;33.00;;
67294;Laerm;58160;51.434;5.978;2023-04-06T00:29:52;31.17;30.10;32.64;;
67294;Laerm;58160;51.434;5.978;2023-04-06T00:30:03;31.04;30.00;32.05;;
67294;Laerm;58160;51.434;5.978;2023-04-06T00:30:14;31.05;30.02;32.09;;
67294;Laerm;58160;51.434;5.978;2023-04-06T00:30:25;31.35;30.08;32.71;;
67294;Laerm;58160;51.434;5.978;2023-04-06T00:30:35;31.50;30.29;32.55;;
67294;Laerm;58160;51.434;5.978;2023-04-06T00:30:45;31.19;30.16;32.34;;
67294;Laerm;58160;51.434;5.978;2023-04-06T00:30:55;31.12;30.10;32.95;;
67294;Laerm;58160;51.434;5.978;2023-04-06T00:31:06;34.54;30.23;46.76;;
67294;Laerm;58160;51.434;5.978;2023-04-06T00:31:16;31.20;30.17;32.60;;
67294;Laerm;58160;51.434;5.978;2023-04-06T00:31:26;31.06;29.96;32.04;;
67294;Laerm;58160;51.434;5.978;2023-04-06T00:31:37;31.04;29.86;32.17;;
67294;Laerm;58160;51.434;5.978;2023-04-06T00:31:47;31.03;29.86;32.03;;
67294;Laerm;58160;51.434;5.978;2023-04-06T00:31:58;31.03;30.03;31.90;;
67294;Laerm;58160;51.434;5.978;2023-04-06T00:32:08;31.03;29.78;32.34;;
67294;Laerm;58160;51.434;5.978;2023-04-06T00:32:18;31.25;29.84;41.88;;
67294;Laerm;58160;51.434;5.978;2023-04-06T00:32:29;31.11;29.94;33.67;;
67294;Laerm;58160;51.434;5.978;2023-04-06T00:32:39;31.05;29.92;32.19;;
67294;Laerm;58160;51.434;5.978;2023-04-06T00:32:49;31.02;29.70;32.11;;
67294;Laerm;58160;51.434;5.978;2023-04-06T00:33:00;31.06;29.91;32.08;;
67294;Laerm;58160;51.434;5.978;2023-04-06T00:33:10;31.16;30.28;32.21;;
67294;Laerm;58160;51.434;5.978;2023-04-06T00:33:21;32.92;30.59;37.75;;
67294;Laerm;58160;51.434;5.978;2023-04-06T00:33:32;52.60;36.22;60.58;;
67294;Laerm;58160;51.434;5.978;2023-04-06T00:33:42;40.11;33.45;49.54;;
67294;Laerm;58160;51.434;5.978;2023-04-06T00:33:52;33.96;32.21;35.68;;
67294;Laerm;58160;51.434;5.978;2023-04-06T00:34:03;33.33;31.72;38.33;;
67294;Laerm;58160;51.434;5.978;2023-04-06T00:34:13;31.81;30.38;41.82;;
67294;Laerm;58160;51.434;5.978;2023-04-06T00:34:25;31.98;29.98;40.38;;
67294;Laerm;58160;51.434;5.978;2023-04-06T00:34:36;33.03;29.73;42.27;;
67294;Laerm;58160;51.434;5.978;2023-04-06T00:34:46;33.16;29.75;48.60;;
67294;Laerm;58160;51.434;5.978;2023-04-06T00:34:57;32.66;29.91;45.04;;
67294;Laerm;58160;51.434;5.978;2023-04-06T00:35:07;32.01;29.85;47.45;;
67294;Laerm;58160;51.434;5.978;2023-04-06T00:35:18;30.90;29.65;31.90;;
67294;Laerm;58160;51.434;5.978;2023-04-06T00:35:28;30.93;29.94;31.89;;
67294;Laerm;58160;51.434;5.978;2023-04-06T00:35:39;30.91;29.91;32.05;;
67294;Laerm;58160;51.434;5.978;2023-04-06T00:35:49;30.83;29.63;31.95;;
67294;Laerm;58160;51.434;5.978;2023-04-06T00:36:00;30.83;29.84;31.88;;
67294;Laerm;58160;51.434;5.978;2023-04-06T00:36:10;31.18;30.22;33.82;;
67294;Laerm;58160;51.434;5.978;2023-04-06T00:36:21;31.26;30.27;32.62;;
67294;Laerm;58160;51.434;5.978;2023-04-06T00:36:31;31.87;30.77;33.29;;
67294;Laerm;58160;51.434;5.978;2023-04-06T00:36:41;34.11;31.19;37.16;;
67294;Laerm;58160;51.434;5.978;2023-04-06T00:36:52;35.39;33.13;37.73;;
67294;Laerm;58160;51.434;5.978;2023-04-06T00:37:02;44.83;34.67;55.45;;
67294;Laerm;58160;51.434;5.978;2023-04-06T00:37:12;52.13;32.21;60.76;;
67294;Laerm;58160;51.434;5.978;2023-04-06T00:37:23;32.72;30.17;38.31;;
67294;Laerm;58160;51.434;5.978;2023-04-06T00:37:33;33.49;31.31;36.22;;
67294;Laerm;58160;51.434;5.978;2023-04-06T00:37:45;32.20;30.76;34.56;;
67294;Laerm;58160;51.434;5.978;2023-04-06T00:37:56;31.47;30.06;33.32;;
67294;Laerm;58160;51.434;5.978;2023-04-06T00:38:06;31.06;29.65;32.30;;
67294;Laerm;58160;51.434;5.978;2023-04-06T00:38:16;31.08;29.92;32.92;;
67294;Laerm;58160;51.434;5.978;2023-04-06T00:38:27;31.20;29.85;33.73;;
67294;Laerm;58160;51.434;5.978;2023-04-06T00:38:37;31.16;30.01;35.68;;
67294;Laerm;58160;51.434;5.978;2023-04-06T00:38:47;30.89;29.58;32.00;;
67294;Laerm;58160;51.434;5.978;2023-04-06T00:38:58;30.98;29.97;32.00;;
67294;Laerm;58160;51.434;5.978;2023-04-06T00:39:09;30.87;29.70;31.83;;
67294;Laerm;58160;51.434;5.978;2023-04-06T00:39:19;30.85;29.61;31.85;;
67294;Laerm;58160;51.434;5.978;2023-04-06T00:39:30;30.87;30.03;31.93;;
67294;Laerm;58160;51.434;5.978;2023-04-06T00:39:40;30.90;29.65;31.78;;
67294;Laerm;58160;51.434;5.978;2023-04-06T00:39:51;30.96;29.71;32.00;;
67294;Laerm;58160;51.434;5.978;2023-04-06T00:40:01;30.88;30.01;32.03;;
67294;Laerm;58160;51.434;5.978;2023-04-06T00:40:12;30.84;29.87;32.85;;
67294;Laerm;58160;51.434;5.978;2023-04-06T00:40:22;30.88;29.66;31.92;;
67294;Laerm;58160;51.434;5.978;2023-04-06T00:40:33;30.92;29.98;33.09;;
67294;Laerm;58160;51.434;5.978;2023-04-06T00:40:44;30.86;29.85;31.92;;
67294;Laerm;58160;51.434;5.978;2023-04-06T00:40:55;30.84;29.80;31.66;;
67294;Laerm;58160;51.434;5.978;2023-04-06T00:41:05;30.87;30.02;31.60;;
67294;Laerm;58160;51.434;5.978;2023-04-06T00:41:17;31.31;29.93;37.53;;
67294;Laerm;58160;51.434;5.978;2023-04-06T00:41:27;30.96;29.88;32.24;;
67294;Laerm;58160;51.434;5.978;2023-04-06T00:41:38;31.38;30.14;35.38;;
67294;Laerm;58160;51.434;5.978;2023-04-06T00:41:50;31.08;29.97;32.32;;
67294;Laerm;58160;51.434;5.978;2023-04-06T00:42:01;30.87;29.89;33.61;;
67294;Laerm;58160;51.434;5.978;2023-04-06T00:42:17;30.89;29.95;32.15;;
67294;Laerm;58160;51.434;5.978;2023-04-06T00:42:35;30.86;29.89;32.24;;
67294;Laerm;58160;51.434;5.978;2023-04-06T00:42:45;30.81;29.57;35.91;;
67294;Laerm;58160;51.434;5.978;2023-04-06T00:42:56;30.79;29.98;31.81;;
67294;Laerm;58160;51.434;5.978;2023-04-06T00:43:06;30.82;29.92;31.91;;
67294;Laerm;58160;51.434;5.978;2023-04-06T00:43:17;30.77;29.71;31.64;;
67294;Laerm;58160;51.434;5.978;2023-04-06T00:43:27;30.78;29.61;31.72;;
67294;Laerm;58160;51.434;5.978;2023-04-06T00:43:37;31.13;29.91;40.60;;
67294;Laerm;58160;51.434;5.978;2023-04-06T00:43:48;30.82;29.74;31.83;;
67294;Laerm;58160;51.434;5.978;2023-04-06T00:43:58;30.82;29.92;33.34;;
67294;Laerm;58160;51.434;5.978;2023-04-06T00:44:08;30.80;29.90;31.87;;
67294;Laerm;58160;51.434;5.978;2023-04-06T00:44:19;30.85;29.46;31.72;;
67294;Laerm;58160;51.434;5.978;2023-04-06T00:44:30;30.80;29.86;31.94;;
67294;Laerm;58160;51.434;5.978;2023-04-06T00:44:41;30.89;29.88;32.64;;
67294;Laerm;58160;51.434;5.978;2023-04-06T00:44:53;30.85;29.73;32.58;;
67294;Laerm;58160;51.434;5.978;2023-04-06T00:45:03;30.84;29.78;31.98;;
67294;Laerm;58160;51.434;5.978;2023-04-06T00:45:14;30.81;29.70;31.81;;
67294;Laerm;58160;51.434;5.978;2023-04-06T00:45:24;30.80;29.75;31.84;;
67294;Laerm;58160;51.434;5.978;2023-04-06T00:45:34;30.78;29.85;31.62;;
67294;Laerm;58160;51.434;5.978;2023-04-06T00:45:45;30.81;29.99;33.48;;
67294;Laerm;58160;51.434;5.978;2023-04-06T00:45:55;30.81;29.85;32.89;;
67294;Laerm;58160;51.434;5.978;2023-04-06T00:46:05;30.81;29.48;32.16;;
67294;Laerm;58160;51.434;5.978;2023-04-06T00:46:16;30.78;29.27;32.06;;
67294;Laerm;58160;51.434;5.978;2023-04-06T00:46:26;30.84;29.74;32.03;;
67294;Laerm;58160;51.434;5.978;2023-04-06T00:46:36;30.84;29.77;32.97;;
67294;Laerm;58160;51.434;5.978;2023-04-06T00:46:47;30.78;29.92;31.67;;
67294;Laerm;58160;51.434;5.978;2023-04-06T00:46:57;30.82;29.80;32.01;;
67294;Laerm;58160;51.434;5.978;2023-04-06T00:47:08;30.83;29.86;31.98;;
67294;Laerm;58160;51.434;5.978;2023-04-06T00:47:18;30.85;29.91;31.94;;
67294;Laerm;58160;51.434;5.978;2023-04-06T00:47:28;30.76;29.74;31.64;;
67294;Laerm;58160;51.434;5.978;2023-04-06T00:47:39;30.75;29.77;31.74;;
67294;Laerm;58160;51.434;5.978;2023-04-06T00:47:49;30.75;29.74;31.82;;
67294;Laerm;58160;51.434;5.978;2023-04-06T00:48:00;30.83;29.74;31.91;;
67294;Laerm;58160;51.434;5.978;2023-04-06T00:48:11;30.78;29.72;31.81;;
67294;Laerm;58160;51.434;5.978;2023-04-06T00:48:22;30.76;29.83;31.96;;
67294;Laerm;58160;51.434;5.978;2023-04-06T00:48:32;30.78;29.83;31.92;;
67294;Laerm;58160;51.434;5.978;2023-04-06T00:48:42;30.81;29.94;31.71;;
67294;Laerm;58160;51.434;5.978;2023-04-06T00:48:53;30.88;29.74;31.91;;
67294;Laerm;58160;51.434;5.978;2023-04-06T00:49:03;30.86;29.79;32.31;;
67294;Laerm;58160;51.434;5.978;2023-04-06T00:49:14;30.87;29.88;31.72;;
67294;Laerm;58160;51.434;5.978;2023-04-06T00:49:24;30.78;29.72;31.86;;
67294;Laerm;58160;51.434;5.978;2023-04-06T00:49:34;30.80;29.74;31.59;;
67294;Laerm;58160;51.434;5.978;2023-04-06T00:49:45;30.77;29.73;31.82;;
67294;Laerm;58160;51.434;5.978;2023-04-06T00:49:56;30.79;29.76;31.83;;
67294;Laerm;58160;51.434;5.978;2023-04-06T00:50:06;30.72;29.53;31.64;;
67294;Laerm;58160;51.434;5.978;2023-04-06T00:50:17;30.70;29.54;31.72;;
67294;Laerm;58160;51.434;5.978;2023-04-06T00:50:27;30.71;29.68;31.55;;
67294;Laerm;58160;51.434;5.978;2023-04-06T00:50:37;30.71;29.46;31.68;;
67294;Laerm;58160;51.434;5.978;2023-04-06T00:50:48;30.79;29.44;31.68;;
67294;Laerm;58160;51.434;5.978;2023-04-06T00:50:58;30.69;29.78;31.89;;
67294;Laerm;58160;51.434;5.978;2023-04-06T00:51:09;31.12;29.76;34.26;;
67294;Laerm;58160;51.434;5.978;2023-04-06T00:51:20;31.05;29.79;33.09;;
67294;Laerm;58160;51.434;5.978;2023-04-06T00:51:30;30.95;29.99;32.12;;
67294;Laerm;58160;51.434;5.978;2023-04-06T00:51:40;31.44;30.12;35.57;;
67294;Laerm;58160;51.434;5.978;2023-04-06T00:51:51;31.28;29.64;33.29;;
67294;Laerm;58160;51.434;5.978;2023-04-06T00:52:02;31.06;30.08;32.03;;
67294;Laerm;58160;51.434;5.978;2023-04-06T00:52:13;31.42;30.05;44.14;;
67294;Laerm;58160;51.434;5.978;2023-04-06T00:52:23;30.94;29.87;32.08;;
67294;Laerm;58160;51.434;5.978;2023-04-06T00:52:34;30.86;29.88;31.80;;
67294;Laerm;58160;51.434;5.978;2023-04-06T00:52:44;30.80;29.66;31.90;;
67294;Laerm;58160;51.434;5.978;2023-04-06T00:52:55;30.79;29.89;31.64;;
67294;Laerm;58160;51.434;5.978;2023-04-06T00:53:05;30.81;29.74;32.04;;
67294;Laerm;58160;51.434;5.978;2023-04-06T00:53:16;31.21;29.61;44.94;;
67294;Laerm;58160;51.434;5.978;2023-04-06T00:53:27;30.77;29.80;31.66;;
67294;Laerm;58160;51.434;5.978;2023-04-06T00:53:37;30.76;29.68;31.68;;
67294;Laerm;58160;51.434;5.978;2023-04-06T00:53:48;30.84;29.77;31.86;;
67294;Laerm;58160;51.434;5.978;2023-04-06T00:53:58;30.78;29.76;31.88;;
67294;Laerm;58160;51.434;5.978;2023-04-06T00:54:08;30.84;29.62;35.13;;
67294;Laerm;58160;51.434;5.978;2023-04-06T00:54:19;30.79;29.86;31.74;;
67294;Laerm;58160;51.434;5.978;2023-04-06T00:54:29;31.11;29.66;41.54;;
67294;Laerm;58160;51.434;5.978;2023-04-06T00:54:40;30.79;29.98;31.67;;
67294;Laerm;58160;51.434;5.978;2023-04-06T00:54:51;30.73;29.86;31.81;;
67294;Laerm;58160;51.434;5.978;2023-04-06T00:55:02;30.80;29.92;31.79;;
67294;Laerm;58160;51.434;5.978;2023-04-06T00:55:12;30.86;29.58;34.02;;
67294;Laerm;58160;51.434;5.978;2023-04-06T00:55:22;30.76;29.95;31.82;;
67294;Laerm;58160;51.434;5.978;2023-04-06T00:55:33;30.83;29.89;31.88;;
67294;Laerm;58160;51.434;5.978;2023-04-06T00:55:45;31.51;29.61;38.03;;
67294;Laerm;58160;51.434;5.978;2023-04-06T00:55:56;31.10;29.91;35.01;;
67294;Laerm;58160;51.434;5.978;2023-04-06T00:56:06;31.03;30.01;33.41;;
67294;Laerm;58160;51.434;5.978;2023-04-06T00:56:19;30.91;29.89;33.01;;
67294;Laerm;58160;51.434;5.978;2023-04-06T00:56:31;30.88;29.87;31.85;;
67294;Laerm;58160;51.434;5.978;2023-04-06T00:56:42;30.84;29.79;33.52;;
67294;Laerm;58160;51.434;5.978;2023-04-06T00:56:53;30.87;29.82;31.81;;
67294;Laerm;58160;51.434;5.978;2023-04-06T00:57:03;30.91;29.86;32.42;;
67294;Laerm;58160;51.434;5.978;2023-04-06T00:57:13;30.90;29.76;31.93;;
67294;Laerm;58160;51.434;5.978;2023-04-06T00:57:24;30.86;29.74;31.94;;
67294;Laerm;58160;51.434;5.978;2023-04-06T00:57:35;30.90;29.78;32.05;;
67294;Laerm;58160;51.434;5.978;2023-04-06T00:57:45;30.96;30.06;31.86;;
67294;Laerm;58160;51.434;5.978;2023-04-06T00:57:56;30.89;29.86;32.43;;
67294;Laerm;58160;51.434;5.978;2023-04-06T00:58:07;30.88;30.07;31.89;;
67294;Laerm;58160;51.434;5.978;2023-04-06T00:58:17;30.85;29.89;31.82;;
67294;Laerm;58160;51.434;5.978;2023-04-06T00:58:28;31.12;29.77;33.26;;
67294;Laerm;58160;51.434;5.978;2023-04-06T00:58:38;30.82;29.80;31.75;;
67294;Laerm;58160;51.434;5.978;2023-04-06T00:58:49;30.89;30.02;32.32;;
67294;Laerm;58160;51.434;5.978;2023-04-06T00:58:59;30.84;29.78;32.03;;
67294;Laerm;58160;51.434;5.978;2023-04-06T00:59:10;30.84;29.75;31.69;;